sensor_id;sensor_type;location;lat;lon;timestamp;temperature;humidity
18882;DHT22;9573;50.948;11.600;2022-08-02T00:01:47;19.00;99.90
18882;DHT22;9573;50.948;11.600;2022-08-02T00:04:14;19.00;99.90
18882;DHT22;9573;50.948;11.600;2022-08-02T00:06:43;19.00;99.90
18882;DHT22;9573;50.948;11.600;2022-08-02T00:09:10;18.90;99.90
18882;DHT22;9573;50.948;11.600;2022-08-02T00:11:37;18.80;99.90
18882;DHT22;9573;50.948;11.600;2022-08-02T00:14:05;18.80;99.90
18882;DHT22;9573;50.948;11.600;2022-08-02T00:16:32;18.80;99.90
18882;DHT22;9573;50.948;11.600;2022-08-02T00:18:59;18.80;99.90
18882;DHT22;9573;50.948;11.600;2022-08-02T00:21:26;18.70;99.90
18882;DHT22;9573;50.948;11.600;2022-08-02T00:23:55;18.70;99.90
18882;DHT22;9573;50.948;11.600;2022-08-02T00:26:22;18.70;99.90
18882;DHT22;9573;50.948;11.600;2022-08-02T00:28:49;18.70;99.90
18882;DHT22;9573;50.948;11.600;2022-08-02T00:31:16;18.70;99.90
18882;DHT22;9573;50.948;11.600;2022-08-02T00:33:44;18.70;99.90
18882;DHT22;9573;50.948;11.600;2022-08-02T00:36:11;18.70;99.90
18882;DHT22;9573;50.948;11.600;2022-08-02T00:38:38;18.80;99.90
18882;DHT22;9573;50.948;11.600;2022-08-02T00:41:11;18.80;99.90
18882;DHT22;9573;50.948;11.600;2022-08-02T00:43:39;18.80;99.90
18882;DHT22;9573;50.948;11.600;2022-08-02T00:46:06;18.80;99.90
18882;DHT22;9573;50.948;11.600;2022-08-02T00:48:33;18.80;99.90
18882;DHT22;9573;50.948;11.600;2022-08-02T00:51:01;18.80;99.90
18882;DHT22;9573;50.948;11.600;2022-08-02T00:53:28;18.80;99.90
18882;DHT22;9573;50.948;11.600;2022-08-02T00:55:56;18.80;99.90
18882;DHT22;9573;50.948;11.600;2022-08-02T00:58:25;18.80;99.90
18882;DHT22;9573;50.948;11.600;2022-08-02T01:00:52;18.70;99.90
18882;DHT22;9573;50.948;11.600;2022-08-02T01:03:22;18.60;99.90
18882;DHT22;9573;50.948;11.600;2022-08-02T01:05:49;18.50;99.90
18882;DHT22;9573;50.948;11.600;2022-08-02T01:08:16;18.50;99.90
18882;DHT22;9573;50.948;11.600;2022-08-02T01:10:44;18.40;99.90
18882;DHT22;9573;50.948;11.600;2022-08-02T01:13:11;18.30;99.90
18882;DHT22;9573;50.948;11.600;2022-08-02T01:15:51;18.20;99.90
18882;DHT22;9573;50.948;11.600;2022-08-02T01:18:30;18.10;99.90
18882;DHT22;9573;50.948;11.600;2022-08-02T01:21:23;18.10;99.90
18882;DHT22;9573;50.948;11.600;2022-08-02T01:24:33;18.00;99.90
18882;DHT22;9573;50.948;11.600;2022-08-02T01:27:14;17.90;99.90
18882;DHT22;9573;50.948;11.600;2022-08-02T01:29:55;17.80;99.90
18882;DHT22;9573;50.948;11.600;2022-08-02T01:32:28;17.70;99.90
18882;DHT22;9573;50.948;11.600;2022-08-02T01:35:02;17.70;99.90
18882;DHT22;9573;50.948;11.600;2022-08-02T01:37:39;17.60;99.90
18882;DHT22;9573;50.948;11.600;2022-08-02T01:40:13;17.60;99.90
18882;DHT22;9573;50.948;11.600;2022-08-02T01:42:46;17.50;99.90
18882;DHT22;9573;50.948;11.600;2022-08-02T01:45:17;17.50;99.90
18882;DHT22;9573;50.948;11.600;2022-08-02T01:47:46;17.40;99.90
18882;DHT22;9573;50.948;11.600;2022-08-02T01:50:16;17.40;99.90
18882;DHT22;9573;50.948;11.600;2022-08-02T01:52:47;17.30;99.90
18882;DHT22;9573;50.948;11.600;2022-08-02T01:55:21;17.20;99.90
18882;DHT22;9573;50.948;11.600;2022-08-02T01:57:52;17.20;99.90
18882;DHT22;9573;50.948;11.600;2022-08-02T02:00:27;17.10;99.90
18882;DHT22;9573;50.948;11.600;2022-08-02T02:02:56;17.10;99.90
18882;DHT22;9573;50.948;11.600;2022-08-02T02:05:27;17.10;99.90
18882;DHT22;9573;50.948;11.600;2022-08-02T02:07:57;17.10;99.90
18882;DHT22;9573;50.948;11.600;2022-08-02T02:10:27;17.20;99.90
18882;DHT22;9573;50.948;11.600;2022-08-02T02:12:59;17.20;99.90
18882;DHT22;9573;50.948;11.600;2022-08-02T02:15:30;17.20;99.90
18882;DHT22;9573;50.948;11.600;2022-08-02T02:18:01;17.20;99.90
18882;DHT22;9573;50.948;11.600;2022-08-02T02:20:29;17.20;99.90
18882;DHT22;9573;50.948;11.600;2022-08-02T02:22:58;17.20;99.90
18882;DHT22;9573;50.948;11.600;2022-08-02T02:25:25;17.20;99.90
18882;DHT22;9573;50.948;11.600;2022-08-02T02:27:55;17.20;99.90
18882;DHT22;9573;50.948;11.600;2022-08-02T02:30:26;17.20;99.90
18882;DHT22;9573;50.948;11.600;2022-08-02T02:33:00;17.20;99.90
18882;DHT22;9573;50.948;11.600;2022-08-02T02:35:31;17.10;99.90
18882;DHT22;9573;50.948;11.600;2022-08-02T02:38:01;17.10;99.90
18882;DHT22;9573;50.948;11.600;2022-08-02T02:40:32;17.00;99.90
18882;DHT22;9573;50.948;11.600;2022-08-02T02:43:00;17.00;99.90
18882;DHT22;9573;50.948;11.600;2022-08-02T02:45:27;17.00;99.90
18882;DHT22;9573;50.948;11.600;2022-08-02T02:47:57;17.00;99.90
18882;DHT22;9573;50.948;11.600;2022-08-02T02:50:26;17.00;99.90
18882;DHT22;9573;50.948;11.600;2022-08-02T02:52:55;17.00;99.90
18882;DHT22;9573;50.948;11.600;2022-08-02T02:55:23;17.00;99.90
18882;DHT22;9573;50.948;11.600;2022-08-02T02:57:51;16.90;99.90
18882;DHT22;9573;50.948;11.600;2022-08-02T03:00:19;16.90;99.90
18882;DHT22;9573;50.948;11.600;2022-08-02T03:03:08;16.90;99.90
18882;DHT22;9573;50.948;11.600;2022-08-02T03:05:36;16.90;99.90
18882;DHT22;9573;50.948;11.600;2022-08-02T03:08:04;16.80;99.90
18882;DHT22;9573;50.948;11.600;2022-08-02T03:10:32;16.80;99.90
18882;DHT22;9573;50.948;11.600;2022-08-02T03:12:59;16.80;99.90
18882;DHT22;9573;50.948;11.600;2022-08-02T03:15:28;16.80;99.90
18882;DHT22;9573;50.948;11.600;2022-08-02T03:17:56;16.70;99.90
18882;DHT22;9573;50.948;11.600;2022-08-02T03:20:25;16.70;99.90
18882;DHT22;9573;50.948;11.600;2022-08-02T03:22:52;16.70;99.90
18882;DHT22;9573;50.948;11.600;2022-08-02T03:25:19;16.60;99.90
18882;DHT22;9573;50.948;11.600;2022-08-02T03:27:46;16.60;99.90
18882;DHT22;9573;50.948;11.600;2022-08-02T03:30:14;16.70;99.90
18882;DHT22;9573;50.948;11.600;2022-08-02T03:32:43;16.70;99.90
18882;DHT22;9573;50.948;11.600;2022-08-02T03:35:14;16.80;99.90
18882;DHT22;9573;50.948;11.600;2022-08-02T03:37:44;16.80;99.90
18882;DHT22;9573;50.948;11.600;2022-08-02T03:40:12;16.80;99.90
18882;DHT22;9573;50.948;11.600;2022-08-02T03:42:41;16.60;99.90
18882;DHT22;9573;50.948;11.600;2022-08-02T03:45:09;16.50;99.90
18882;DHT22;9573;50.948;11.600;2022-08-02T03:47:38;16.50;99.90
18882;DHT22;9573;50.948;11.600;2022-08-02T03:50:08;16.40;99.90
18882;DHT22;9573;50.948;11.600;2022-08-02T03:52:38;16.50;99.90
18882;DHT22;9573;50.948;11.600;2022-08-02T03:55:09;16.40;99.90
18882;DHT22;9573;50.948;11.600;2022-08-02T03:57:37;16.40;99.90
18882;DHT22;9573;50.948;11.600;2022-08-02T04:00:06;16.40;99.90
18882;DHT22;9573;50.948;11.600;2022-08-02T04:02:35;16.40;99.90
18882;DHT22;9573;50.948;11.600;2022-08-02T04:05:03;16.30;99.90
18882;DHT22;9573;50.948;11.600;2022-08-02T04:07:30;16.30;99.90
18882;DHT22;9573;50.948;11.600;2022-08-02T04:09:57;16.30;99.90
18882;DHT22;9573;50.948;11.600;2022-08-02T04:12:26;16.30;99.90
18882;DHT22;9573;50.948;11.600;2022-08-02T04:14:53;16.40;99.90
18882;DHT22;9573;50.948;11.600;2022-08-02T04:17:22;16.40;99.90
18882;DHT22;9573;50.948;11.600;2022-08-02T04:19:52;16.40;99.90
18882;DHT22;9573;50.948;11.600;2022-08-02T04:22:24;16.50;99.90
18882;DHT22;9573;50.948;11.600;2022-08-02T04:24:57;16.60;99.90
18882;DHT22;9573;50.948;11.600;2022-08-02T04:27:27;16.70;99.90
18882;DHT22;9573;50.948;11.600;2022-08-02T04:29:56;16.80;99.90
18882;DHT22;9573;50.948;11.600;2022-08-02T04:32:24;16.90;99.90
18882;DHT22;9573;50.948;11.600;2022-08-02T04:34:51;17.00;99.90
18882;DHT22;9573;50.948;11.600;2022-08-02T04:37:19;17.20;99.90
18882;DHT22;9573;50.948;11.600;2022-08-02T04:39:46;17.30;99.90
18882;DHT22;9573;50.948;11.600;2022-08-02T04:42:19;17.40;99.90
18882;DHT22;9573;50.948;11.600;2022-08-02T04:44:49;17.50;99.90
18882;DHT22;9573;50.948;11.600;2022-08-02T04:47:17;17.60;99.90
18882;DHT22;9573;50.948;11.600;2022-08-02T04:49:45;17.70;99.90
18882;DHT22;9573;50.948;11.600;2022-08-02T04:52:12;17.80;99.90
18882;DHT22;9573;50.948;11.600;2022-08-02T04:54:40;18.00;99.90
18882;DHT22;9573;50.948;11.600;2022-08-02T04:57:07;18.20;99.90
18882;DHT22;9573;50.948;11.600;2022-08-02T04:59:49;18.60;99.90
18882;DHT22;9573;50.948;11.600;2022-08-02T05:02:16;19.60;99.90
18882;DHT22;9573;50.948;11.600;2022-08-02T05:04:43;20.60;99.90
18882;DHT22;9573;50.948;11.600;2022-08-02T05:07:11;21.70;99.90
18882;DHT22;9573;50.948;11.600;2022-08-02T05:09:38;22.20;99.90
18882;DHT22;9573;50.948;11.600;2022-08-02T05:12:06;22.00;99.90
18882;DHT22;9573;50.948;11.600;2022-08-02T05:14:33;21.80;99.90
18882;DHT22;9573;50.948;11.600;2022-08-02T05:17:02;21.50;99.90
18882;DHT22;9573;50.948;11.600;2022-08-02T05:19:29;21.30;99.90
18882;DHT22;9573;50.948;11.600;2022-08-02T05:21:56;21.20;99.90
18882;DHT22;9573;50.948;11.600;2022-08-02T05:24:24;21.00;99.90
18882;DHT22;9573;50.948;11.600;2022-08-02T05:26:51;20.70;99.90
18882;DHT22;9573;50.948;11.600;2022-08-02T05:29:18;20.50;99.90
18882;DHT22;9573;50.948;11.600;2022-08-02T05:31:46;20.30;99.90
18882;DHT22;9573;50.948;11.600;2022-08-02T05:34:15;20.40;99.90
18882;DHT22;9573;50.948;11.600;2022-08-02T05:36:42;20.60;99.90
18882;DHT22;9573;50.948;11.600;2022-08-02T05:39:09;21.00;99.90
18882;DHT22;9573;50.948;11.600;2022-08-02T05:41:36;21.70;99.90
18882;DHT22;9573;50.948;11.600;2022-08-02T05:44:04;21.90;99.90
18882;DHT22;9573;50.948;11.600;2022-08-02T05:46:31;22.00;99.90
18882;DHT22;9573;50.948;11.600;2022-08-02T05:48:58;22.20;99.90
18882;DHT22;9573;50.948;11.600;2022-08-02T05:51:30;22.00;99.90
18882;DHT22;9573;50.948;11.600;2022-08-02T05:54:10;21.90;99.90
18882;DHT22;9573;50.948;11.600;2022-08-02T05:56:46;21.90;99.90
18882;DHT22;9573;50.948;11.600;2022-08-02T05:59:25;22.00;99.90
18882;DHT22;9573;50.948;11.600;2022-08-02T06:02:02;22.30;99.90
18882;DHT22;9573;50.948;11.600;2022-08-02T06:04:33;22.80;99.90
18882;DHT22;9573;50.948;11.600;2022-08-02T06:07:11;22.90;99.90
18882;DHT22;9573;50.948;11.600;2022-08-02T06:09:40;23.10;99.90
18882;DHT22;9573;50.948;11.600;2022-08-02T06:12:10;23.10;99.90
18882;DHT22;9573;50.948;11.600;2022-08-02T06:14:40;22.80;99.90
18882;DHT22;9573;50.948;11.600;2022-08-02T06:17:08;22.70;99.90
18882;DHT22;9573;50.948;11.600;2022-08-02T06:19:36;22.50;99.90
18882;DHT22;9573;50.948;11.600;2022-08-02T06:22:04;22.40;99.90
18882;DHT22;9573;50.948;11.600;2022-08-02T06:24:44;22.50;99.90
18882;DHT22;9573;50.948;11.600;2022-08-02T06:27:13;23.30;99.90
18882;DHT22;9573;50.948;11.600;2022-08-02T06:29:42;24.30;99.90
18882;DHT22;9573;50.948;11.600;2022-08-02T06:32:12;25.30;99.90
18882;DHT22;9573;50.948;11.600;2022-08-02T06:34:42;26.50;99.90
18882;DHT22;9573;50.948;11.600;2022-08-02T06:37:15;27.90;99.90
18882;DHT22;9573;50.948;11.600;2022-08-02T06:39:47;29.50;99.90
18882;DHT22;9573;50.948;11.600;2022-08-02T06:42:20;30.30;96.30
18882;DHT22;9573;50.948;11.600;2022-08-02T06:44:48;30.80;93.40
18882;DHT22;9573;50.948;11.600;2022-08-02T06:47:15;30.80;91.90
18882;DHT22;9573;50.948;11.600;2022-08-02T06:49:43;31.10;90.10
18882;DHT22;9573;50.948;11.600;2022-08-02T06:52:10;32.30;84.80
18882;DHT22;9573;50.948;11.600;2022-08-02T06:54:37;34.20;77.50
18882;DHT22;9573;50.948;11.600;2022-08-02T06:57:08;35.80;69.30
18882;DHT22;9573;50.948;11.600;2022-08-02T06:59:35;37.00;63.50
18882;DHT22;9573;50.948;11.600;2022-08-02T07:02:03;37.60;57.90
18882;DHT22;9573;50.948;11.600;2022-08-02T07:04:30;37.90;54.10
18882;DHT22;9573;50.948;11.600;2022-08-02T07:07:00;38.10;53.80
18882;DHT22;9573;50.948;11.600;2022-08-02T07:09:27;39.50;52.00
18882;DHT22;9573;50.948;11.600;2022-08-02T07:11:54;40.40;49.40
18882;DHT22;9573;50.948;11.600;2022-08-02T07:14:23;40.90;47.80
18882;DHT22;9573;50.948;11.600;2022-08-02T07:16:50;41.60;46.40
18882;DHT22;9573;50.948;11.600;2022-08-02T07:19:18;41.00;45.40
18882;DHT22;9573;50.948;11.600;2022-08-02T07:21:45;40.20;46.00
18882;DHT22;9573;50.948;11.600;2022-08-02T07:24:12;40.30;46.00
18882;DHT22;9573;50.948;11.600;2022-08-02T07:26:39;41.10;45.80
18882;DHT22;9573;50.948;11.600;2022-08-02T07:29:06;41.50;44.70
18882;DHT22;9573;50.948;11.600;2022-08-02T07:31:35;42.30;44.30
18882;DHT22;9573;50.948;11.600;2022-08-02T07:34:02;42.40;43.20
18882;DHT22;9573;50.948;11.600;2022-08-02T07:36:29;41.60;43.00
18882;DHT22;9573;50.948;11.600;2022-08-02T07:38:57;41.20;43.50
18882;DHT22;9573;50.948;11.600;2022-08-02T07:41:24;42.10;43.70
18882;DHT22;9573;50.948;11.600;2022-08-02T07:43:51;42.10;42.10
18882;DHT22;9573;50.948;11.600;2022-08-02T07:46:18;43.10;42.50
18882;DHT22;9573;50.948;11.600;2022-08-02T07:48:47;43.80;42.10
18882;DHT22;9573;50.948;11.600;2022-08-02T07:51:14;44.60;41.20
18882;DHT22;9573;50.948;11.600;2022-08-02T07:53:41;44.80;40.50
18882;DHT22;9573;50.948;11.600;2022-08-02T07:56:08;44.50;40.40
18882;DHT22;9573;50.948;11.600;2022-08-02T07:58:35;44.40;40.20
18882;DHT22;9573;50.948;11.600;2022-08-02T08:01:02;44.90;39.80
18882;DHT22;9573;50.948;11.600;2022-08-02T08:03:29;45.40;38.60
18882;DHT22;9573;50.948;11.600;2022-08-02T08:05:58;44.30;38.30
18882;DHT22;9573;50.948;11.600;2022-08-02T08:08:25;44.50;39.40
18882;DHT22;9573;50.948;11.600;2022-08-02T08:10:52;44.00;38.80
18882;DHT22;9573;50.948;11.600;2022-08-02T08:13:19;43.50;40.10
18882;DHT22;9573;50.948;11.600;2022-08-02T08:15:46;44.30;39.20
18882;DHT22;9573;50.948;11.600;2022-08-02T08:18:14;43.70;39.20
18882;DHT22;9573;50.948;11.600;2022-08-02T08:20:41;43.70;39.70
18882;DHT22;9573;50.948;11.600;2022-08-02T08:23:09;43.80;39.80
18882;DHT22;9573;50.948;11.600;2022-08-02T08:25:36;44.20;39.60
18882;DHT22;9573;50.948;11.600;2022-08-02T08:28:04;45.00;39.10
18882;DHT22;9573;50.948;11.600;2022-08-02T08:30:31;45.20;38.90
18882;DHT22;9573;50.948;11.600;2022-08-02T08:32:58;45.10;38.90
18882;DHT22;9573;50.948;11.600;2022-08-02T08:35:25;45.00;39.00
18882;DHT22;9573;50.948;11.600;2022-08-02T08:37:52;45.40;38.70
18882;DHT22;9573;50.948;11.600;2022-08-02T08:40:24;45.30;37.90
18882;DHT22;9573;50.948;11.600;2022-08-02T08:42:51;44.80;38.20
18882;DHT22;9573;50.948;11.600;2022-08-02T08:45:19;45.10;37.70
18882;DHT22;9573;50.948;11.600;2022-08-02T08:47:51;44.80;38.50
18882;DHT22;9573;50.948;11.600;2022-08-02T08:50:20;45.10;38.40
18882;DHT22;9573;50.948;11.600;2022-08-02T08:52:53;45.20;38.40
18882;DHT22;9573;50.948;11.600;2022-08-02T08:55:28;45.20;38.30
18882;DHT22;9573;50.948;11.600;2022-08-02T08:57:58;44.70;38.60
18882;DHT22;9573;50.948;11.600;2022-08-02T09:00:27;44.00;38.90
18882;DHT22;9573;50.948;11.600;2022-08-02T09:02:57;43.50;39.50
18882;DHT22;9573;50.948;11.600;2022-08-02T09:05:24;43.50;39.70
18882;DHT22;9573;50.948;11.600;2022-08-02T09:07:52;43.50;39.40
18882;DHT22;9573;50.948;11.600;2022-08-02T09:10:35;44.10;39.20
18882;DHT22;9573;50.948;11.600;2022-08-02T09:13:14;44.40;38.60
18882;DHT22;9573;50.948;11.600;2022-08-02T09:15:43;44.30;38.60
18882;DHT22;9573;50.948;11.600;2022-08-02T09:18:12;44.00;38.80
18882;DHT22;9573;50.948;11.600;2022-08-02T09:20:52;43.70;39.30
18882;DHT22;9573;50.948;11.600;2022-08-02T09:23:23;43.70;40.20
18882;DHT22;9573;50.948;11.600;2022-08-02T09:25:57;43.40;39.00
18882;DHT22;9573;50.948;11.600;2022-08-02T09:28:26;43.60;39.10
18882;DHT22;9573;50.948;11.600;2022-08-02T09:31:03;43.80;38.90
18882;DHT22;9573;50.948;11.600;2022-08-02T09:33:31;44.40;38.50
18882;DHT22;9573;50.948;11.600;2022-08-02T09:36:00;45.10;38.10
18882;DHT22;9573;50.948;11.600;2022-08-02T09:38:29;45.20;37.10
18882;DHT22;9573;50.948;11.600;2022-08-02T09:40:58;45.20;37.50
18882;DHT22;9573;50.948;11.600;2022-08-02T09:43:37;45.00;37.50
18882;DHT22;9573;50.948;11.600;2022-08-02T09:46:12;44.90;37.30
18882;DHT22;9573;50.948;11.600;2022-08-02T09:48:48;45.00;37.10
18882;DHT22;9573;50.948;11.600;2022-08-02T09:51:20;44.90;37.50
18882;DHT22;9573;50.948;11.600;2022-08-02T09:53:50;44.60;37.00
18882;DHT22;9573;50.948;11.600;2022-08-02T09:56:21;44.50;37.30
18882;DHT22;9573;50.948;11.600;2022-08-02T09:58:50;43.50;38.10
18882;DHT22;9573;50.948;11.600;2022-08-02T10:01:19;43.30;38.60
18882;DHT22;9573;50.948;11.600;2022-08-02T10:03:54;43.10;39.20
18882;DHT22;9573;50.948;11.600;2022-08-02T10:06:23;41.60;39.40
18882;DHT22;9573;50.948;11.600;2022-08-02T10:08:51;40.40;42.10
18882;DHT22;9573;50.948;11.600;2022-08-02T10:11:20;40.60;42.00
18882;DHT22;9573;50.948;11.600;2022-08-02T10:13:49;41.40;41.20
18882;DHT22;9573;50.948;11.600;2022-08-02T10:16:19;41.70;40.50
18882;DHT22;9573;50.948;11.600;2022-08-02T10:18:48;42.40;39.70
18882;DHT22;9573;50.948;11.600;2022-08-02T10:21:21;42.10;40.00
18882;DHT22;9573;50.948;11.600;2022-08-02T10:24:02;42.10;39.40
18882;DHT22;9573;50.948;11.600;2022-08-02T10:26:33;41.80;39.80
18882;DHT22;9573;50.948;11.600;2022-08-02T10:29:01;41.90;40.00
18882;DHT22;9573;50.948;11.600;2022-08-02T10:31:33;42.10;39.90
18882;DHT22;9573;50.948;11.600;2022-08-02T10:34:07;42.90;39.50
18882;DHT22;9573;50.948;11.600;2022-08-02T10:36:38;43.80;38.90
18882;DHT22;9573;50.948;11.600;2022-08-02T10:39:06;43.90;38.00
18882;DHT22;9573;50.948;11.600;2022-08-02T10:41:46;43.30;38.60
18882;DHT22;9573;50.948;11.600;2022-08-02T10:44:22;42.80;39.10
18882;DHT22;9573;50.948;11.600;2022-08-02T10:46:52;42.70;39.10
18882;DHT22;9573;50.948;11.600;2022-08-02T10:49:20;43.30;38.80
18882;DHT22;9573;50.948;11.600;2022-08-02T10:52:04;43.90;38.70
18882;DHT22;9573;50.948;11.600;2022-08-02T10:54:35;44.00;37.70
18882;DHT22;9573;50.948;11.600;2022-08-02T10:57:17;44.10;37.30
18882;DHT22;9573;50.948;11.600;2022-08-02T10:59:47;44.30;37.10
18882;DHT22;9573;50.948;11.600;2022-08-02T11:02:34;44.20;36.70
18882;DHT22;9573;50.948;11.600;2022-08-02T11:05:05;43.10;37.20
18882;DHT22;9573;50.948;11.600;2022-08-02T11:07:36;42.50;38.40
18882;DHT22;9573;50.948;11.600;2022-08-02T11:10:32;42.40;38.40
18882;DHT22;9573;50.948;11.600;2022-08-02T11:13:08;42.40;38.80
18882;DHT22;9573;50.948;11.600;2022-08-02T11:15:52;41.60;38.90
18882;DHT22;9573;50.948;11.600;2022-08-02T11:19:03;41.60;39.10
18882;DHT22;9573;50.948;11.600;2022-08-02T11:21:31;42.20;39.30
18882;DHT22;9573;50.948;11.600;2022-08-02T11:24:24;42.70;39.10
18882;DHT22;9573;50.948;11.600;2022-08-02T11:26:53;43.30;38.40
18882;DHT22;9573;50.948;11.600;2022-08-02T11:29:34;43.80;37.20
18882;DHT22;9573;50.948;11.600;2022-08-02T11:32:03;42.50;37.60
18882;DHT22;9573;50.948;11.600;2022-08-02T11:34:31;40.60;39.20
18882;DHT22;9573;50.948;11.600;2022-08-02T11:36:59;40.60;40.40
18882;DHT22;9573;50.948;11.600;2022-08-02T11:39:26;41.50;40.30
18882;DHT22;9573;50.948;11.600;2022-08-02T11:41:55;42.80;39.40
18882;DHT22;9573;50.948;11.600;2022-08-02T11:44:26;43.10;37.50
18882;DHT22;9573;50.948;11.600;2022-08-02T11:46:55;42.80;38.40
18882;DHT22;9573;50.948;11.600;2022-08-02T11:49:23;42.80;38.50
18882;DHT22;9573;50.948;11.600;2022-08-02T11:51:51;42.00;38.70
18882;DHT22;9573;50.948;11.600;2022-08-02T11:54:25;40.40;39.40
18882;DHT22;9573;50.948;11.600;2022-08-02T11:56:54;40.70;40.30
18882;DHT22;9573;50.948;11.600;2022-08-02T11:59:40;40.80;40.10
18882;DHT22;9573;50.948;11.600;2022-08-02T12:02:09;40.90;39.80
18882;DHT22;9573;50.948;11.600;2022-08-02T12:04:37;41.20;40.00
18882;DHT22;9573;50.948;11.600;2022-08-02T12:07:05;42.40;39.30
18882;DHT22;9573;50.948;11.600;2022-08-02T12:09:34;42.30;38.30
18882;DHT22;9573;50.948;11.600;2022-08-02T12:12:03;42.50;39.00
18882;DHT22;9573;50.948;11.600;2022-08-02T12:14:31;42.70;38.30
18882;DHT22;9573;50.948;11.600;2022-08-02T12:17:00;43.10;38.10
18882;DHT22;9573;50.948;11.600;2022-08-02T12:19:45;43.00;37.70
18882;DHT22;9573;50.948;11.600;2022-08-02T12:22:17;42.70;38.40
18882;DHT22;9573;50.948;11.600;2022-08-02T12:24:47;42.40;38.50
18882;DHT22;9573;50.948;11.600;2022-08-02T12:27:29;41.20;39.40
18882;DHT22;9573;50.948;11.600;2022-08-02T12:29:59;39.90;40.80
18882;DHT22;9573;50.948;11.600;2022-08-02T12:32:29;38.40;42.40
18882;DHT22;9573;50.948;11.600;2022-08-02T12:35:15;38.50;43.10
18882;DHT22;9573;50.948;11.600;2022-08-02T12:37:46;39.20;42.60
18882;DHT22;9573;50.948;11.600;2022-08-02T12:40:18;39.00;42.40
18882;DHT22;9573;50.948;11.600;2022-08-02T12:42:47;37.90;43.10
18882;DHT22;9573;50.948;11.600;2022-08-02T12:45:16;37.20;44.10
18882;DHT22;9573;50.948;11.600;2022-08-02T12:47:46;37.30;45.00
18882;DHT22;9573;50.948;11.600;2022-08-02T12:50:17;37.40;44.60
18882;DHT22;9573;50.948;11.600;2022-08-02T12:52:45;36.60;45.40
18882;DHT22;9573;50.948;11.600;2022-08-02T12:55:21;36.50;45.80
18882;DHT22;9573;50.948;11.600;2022-08-02T12:57:53;37.00;45.60
18882;DHT22;9573;50.948;11.600;2022-08-02T13:00:27;36.40;45.40
18882;DHT22;9573;50.948;11.600;2022-08-02T13:02:56;35.90;46.60
18882;DHT22;9573;50.948;11.600;2022-08-02T13:05:25;35.80;47.30
18882;DHT22;9573;50.948;11.600;2022-08-02T13:07:54;35.60;47.30
18882;DHT22;9573;50.948;11.600;2022-08-02T13:10:23;35.70;47.10
18882;DHT22;9573;50.948;11.600;2022-08-02T13:12:51;35.40;47.50
18882;DHT22;9573;50.948;11.600;2022-08-02T13:15:20;34.50;48.50
18882;DHT22;9573;50.948;11.600;2022-08-02T13:17:47;34.30;49.30
18882;DHT22;9573;50.948;11.600;2022-08-02T13:20:15;34.10;49.80
18882;DHT22;9573;50.948;11.600;2022-08-02T13:22:43;33.70;50.10
18882;DHT22;9573;50.948;11.600;2022-08-02T13:25:10;32.60;51.20
18882;DHT22;9573;50.948;11.600;2022-08-02T13:27:37;32.20;52.60
18882;DHT22;9573;50.948;11.600;2022-08-02T13:30:06;32.20;52.60
18882;DHT22;9573;50.948;11.600;2022-08-02T13:32:34;32.40;52.50
18882;DHT22;9573;50.948;11.600;2022-08-02T13:35:01;32.40;52.60
18882;DHT22;9573;50.948;11.600;2022-08-02T13:37:30;32.40;52.80
18882;DHT22;9573;50.948;11.600;2022-08-02T13:39:57;32.50;52.50
18882;DHT22;9573;50.948;11.600;2022-08-02T13:42:24;32.60;52.50
18882;DHT22;9573;50.948;11.600;2022-08-02T13:44:51;32.80;52.10
18882;DHT22;9573;50.948;11.600;2022-08-02T13:47:18;32.50;51.50
18882;DHT22;9573;50.948;11.600;2022-08-02T13:49:45;32.40;52.00
18882;DHT22;9573;50.948;11.600;2022-08-02T13:52:12;31.90;52.10
18882;DHT22;9573;50.948;11.600;2022-08-02T13:54:41;31.80;52.60
18882;DHT22;9573;50.948;11.600;2022-08-02T13:57:08;32.00;52.70
18882;DHT22;9573;50.948;11.600;2022-08-02T13:59:35;31.90;52.40
18882;DHT22;9573;50.948;11.600;2022-08-02T14:02:02;31.60;52.70
18882;DHT22;9573;50.948;11.600;2022-08-02T14:04:29;31.50;53.30
18882;DHT22;9573;50.948;11.600;2022-08-02T14:06:57;31.30;53.10
18882;DHT22;9573;50.948;11.600;2022-08-02T14:09:24;31.30;53.30
18882;DHT22;9573;50.948;11.600;2022-08-02T14:11:53;31.50;53.20
18882;DHT22;9573;50.948;11.600;2022-08-02T14:14:20;31.70;52.80
18882;DHT22;9573;50.948;11.600;2022-08-02T14:16:47;31.80;53.20
18882;DHT22;9573;50.948;11.600;2022-08-02T14:19:14;31.40;52.70
18882;DHT22;9573;50.948;11.600;2022-08-02T14:21:42;31.30;53.40
18882;DHT22;9573;50.948;11.600;2022-08-02T14:24:09;31.30;53.60
18882;DHT22;9573;50.948;11.600;2022-08-02T14:26:36;31.50;53.00
18882;DHT22;9573;50.948;11.600;2022-08-02T14:29:05;31.80;53.10
18882;DHT22;9573;50.948;11.600;2022-08-02T14:31:32;32.00;52.90
18882;DHT22;9573;50.948;11.600;2022-08-02T14:33:59;32.00;52.70
18882;DHT22;9573;50.948;11.600;2022-08-02T14:36:27;32.30;52.90
18882;DHT22;9573;50.948;11.600;2022-08-02T14:38:55;32.40;51.80
18882;DHT22;9573;50.948;11.600;2022-08-02T14:41:22;32.40;51.50
18882;DHT22;9573;50.948;11.600;2022-08-02T14:43:49;32.10;51.40
18882;DHT22;9573;50.948;11.600;2022-08-02T14:46:35;31.90;51.70
18882;DHT22;9573;50.948;11.600;2022-08-02T14:49:05;31.70;51.80
18882;DHT22;9573;50.948;11.600;2022-08-02T14:51:34;31.60;52.20
18882;DHT22;9573;50.948;11.600;2022-08-02T14:54:03;31.60;52.90
18882;DHT22;9573;50.948;11.600;2022-08-02T14:56:32;31.50;52.80
18882;DHT22;9573;50.948;11.600;2022-08-02T14:59:00;31.60;53.10
18882;DHT22;9573;50.948;11.600;2022-08-02T15:01:27;31.80;52.70
18882;DHT22;9573;50.948;11.600;2022-08-02T15:03:57;31.80;51.70
18882;DHT22;9573;50.948;11.600;2022-08-02T15:06:24;31.70;51.70
18882;DHT22;9573;50.948;11.600;2022-08-02T15:08:53;31.40;52.00
18882;DHT22;9573;50.948;11.600;2022-08-02T15:11:20;31.40;52.60
18882;DHT22;9573;50.948;11.600;2022-08-02T15:13:48;31.30;52.80
18882;DHT22;9573;50.948;11.600;2022-08-02T15:16:15;31.30;53.00
18882;DHT22;9573;50.948;11.600;2022-08-02T15:18:42;31.20;52.80
18882;DHT22;9573;50.948;11.600;2022-08-02T15:21:11;31.30;52.80
18882;DHT22;9573;50.948;11.600;2022-08-02T15:23:38;31.30;52.50
18882;DHT22;9573;50.948;11.600;2022-08-02T15:26:05;31.20;52.60
18882;DHT22;9573;50.948;11.600;2022-08-02T15:28:33;31.00;52.60
18882;DHT22;9573;50.948;11.600;2022-08-02T15:31:00;30.90;52.80
18882;DHT22;9573;50.948;11.600;2022-08-02T15:33:27;30.90;53.10
18882;DHT22;9573;50.948;11.600;2022-08-02T15:35:54;30.80;52.90
18882;DHT22;9573;50.948;11.600;2022-08-02T15:38:24;30.60;53.10
18882;DHT22;9573;50.948;11.600;2022-08-02T15:40:51;30.70;53.10
18882;DHT22;9573;50.948;11.600;2022-08-02T15:43:18;30.70;53.40
18882;DHT22;9573;50.948;11.600;2022-08-02T15:45:46;30.70;53.50
18882;DHT22;9573;50.948;11.600;2022-08-02T15:48:13;30.70;53.80